createdAt,value
2022-08-03T00:00:57.450Z,23.50
2022-08-03T00:03:25.800Z,23.40
2022-08-03T00:06:04.487Z,23.40
2022-08-03T00:08:40.065Z,23.30
2022-08-03T00:11:08.742Z,23.30
2022-08-03T00:13:36.834Z,23.20
2022-08-03T00:16:05.474Z,23.20
2022-08-03T00:18:33.613Z,23.20
2022-08-03T00:21:03.454Z,23.10
2022-08-03T00:23:51.632Z,23.10
2022-08-03T00:26:20.189Z,23.10
2022-08-03T00:28:48.384Z,23.00
2022-08-03T00:31:16.533Z,22.90
2022-08-03T00:33:59.221Z,22.90
2022-08-03T00:36:32.611Z,22.80
2022-08-03T00:39:00.795Z,22.80
2022-08-03T00:41:28.958Z,22.70
2022-08-03T00:43:57.153Z,22.70
2022-08-03T00:46:27.355Z,22.70
2022-08-03T00:48:55.696Z,22.70
2022-08-03T00:51:24.267Z,22.60
2022-08-03T00:53:53.717Z,22.60
2022-08-03T00:56:21.840Z,22.60
2022-08-03T00:58:50.284Z,22.50
2022-08-03T01:01:18.447Z,22.40
2022-08-03T01:03:49.035Z,22.50
2022-08-03T01:06:20.038Z,22.40
2022-08-03T01:08:53.533Z,22.30
2022-08-03T01:11:32.190Z,22.30
2022-08-03T01:14:18.627Z,22.30
2022-08-03T01:16:57.789Z,22.30
2022-08-03T01:19:42.766Z,22.30
2022-08-03T01:22:34.467Z,22.20
2022-08-03T01:25:11.181Z,22.20
2022-08-03T01:27:55.910Z,22.20
2022-08-03T01:30:32.501Z,22.10
2022-08-03T01:33:05.624Z,22.10
2022-08-03T01:35:41.373Z,22.10
2022-08-03T01:38:14.617Z,22.00
2022-08-03T01:40:45.503Z,22.00
2022-08-03T01:44:27.983Z,22.00
2022-08-03T01:46:14.143Z,21.90
2022-08-03T01:48:47.280Z,22.00
2022-08-03T01:51:17.844Z,21.90
2022-08-03T01:53:46.670Z,21.90
2022-08-03T01:56:17.612Z,21.80
2022-08-03T01:58:48.417Z,21.80
2022-08-03T02:01:19.065Z,21.70
2022-08-03T02:03:59.905Z,21.70
2022-08-03T02:07:01.077Z,21.60
2022-08-03T02:09:24.683Z,21.60
2022-08-03T02:11:56.944Z,21.60
2022-08-03T02:14:26.095Z,21.60
2022-08-03T02:16:56.908Z,21.50
2022-08-03T02:19:28.745Z,21.50
2022-08-03T02:22:01.256Z,21.50
2022-08-03T02:24:33.646Z,21.40
2022-08-03T02:27:04.867Z,21.40
2022-08-03T02:29:39.457Z,21.40
2022-08-03T02:32:16.447Z,21.30
2022-08-03T02:34:48.519Z,21.30
2022-08-03T02:37:20.970Z,21.30
2022-08-03T02:39:53.324Z,21.30
2022-08-03T02:42:23.268Z,21.30
2022-08-03T02:44:54.465Z,21.20
2022-08-03T02:47:24.693Z,21.20
2022-08-03T02:49:55.450Z,21.20
2022-08-03T02:52:27.738Z,21.20
2022-08-03T02:55:01.091Z,21.20
2022-08-03T02:57:31.598Z,21.20
2022-08-03T03:00:03.520Z,21.10
2022-08-03T03:02:33.915Z,21.10
2022-08-03T03:05:56.152Z,21.10
2022-08-03T03:07:53.143Z,21.10
2022-08-03T03:10:23.660Z,21.10
2022-08-03T03:12:57.642Z,21.10
2022-08-03T03:15:28.118Z,21.10
2022-08-03T03:17:58.221Z,21.10
2022-08-03T03:20:29.861Z,21.00
2022-08-03T03:23:01.325Z,21.00
2022-08-03T03:25:35.367Z,21.00
2022-08-03T03:28:06.302Z,20.90
2022-08-03T03:30:35.702Z,20.90
2022-08-03T03:33:07.875Z,20.80
2022-08-03T03:35:39.020Z,20.80
2022-08-03T03:38:09.958Z,20.80
2022-08-03T03:40:38.857Z,21.00
2022-08-03T03:43:09.266Z,20.80
2022-08-03T03:45:37.576Z,20.80
2022-08-03T03:48:08.494Z,20.80
2022-08-03T03:50:40.787Z,20.80
2022-08-03T03:53:12.698Z,20.80
2022-08-03T03:55:59.274Z,20.70
2022-08-03T03:58:33.710Z,20.90
2022-08-03T04:01:02.068Z,20.80
2022-08-03T04:03:31.503Z,20.80
2022-08-03T04:06:17.327Z,20.80
2022-08-03T04:09:03.334Z,20.80
2022-08-03T04:11:35.914Z,20.80
2022-08-03T04:14:07.602Z,20.80
2022-08-03T04:16:43.162Z,20.80
2022-08-03T04:19:22.625Z,20.80
2022-08-03T04:21:57.489Z,20.80
2022-08-03T04:24:28.217Z,20.80
2022-08-03T04:26:58.404Z,20.80
2022-08-03T04:29:27.945Z,20.90
2022-08-03T04:32:00.594Z,20.90
2022-08-03T04:34:33.471Z,20.90
2022-08-03T04:37:07.150Z,21.00
2022-08-03T04:39:37.191Z,21.00
2022-08-03T04:42:09.168Z,21.00
2022-08-03T04:44:40.965Z,21.10
2022-08-03T04:47:09.440Z,21.10
2022-08-03T04:49:41.660Z,21.20
2022-08-03T04:52:13.325Z,21.30
2022-08-03T04:54:48.803Z,21.30
2022-08-03T04:57:23.056Z,21.30
2022-08-03T04:59:58.249Z,21.40
2022-08-03T05:02:30.646Z,21.40
2022-08-03T05:05:00.546Z,21.50
2022-08-03T05:07:35.737Z,21.50
2022-08-03T05:10:15.954Z,21.60
2022-08-03T05:12:46.647Z,21.60
2022-08-03T05:15:15.287Z,21.70
2022-08-03T05:17:45.929Z,21.80
2022-08-03T05:20:18.753Z,21.90
2022-08-03T05:22:47.446Z,21.90
2022-08-03T05:25:17.788Z,22.00
2022-08-03T05:27:51.323Z,22.00
2022-08-03T05:30:31.556Z,22.00
2022-08-03T05:33:03.621Z,22.10
2022-08-03T05:36:00.903Z,22.20
2022-08-03T05:38:28.303Z,22.20
2022-08-03T05:41:21.324Z,22.40
2022-08-03T05:43:46.104Z,22.40
2022-08-03T05:46:14.625Z,22.50
2022-08-03T05:48:43.526Z,22.90
2022-08-03T05:51:13.575Z,22.70
2022-08-03T05:53:42.116Z,22.70
2022-08-03T05:56:14.041Z,22.80
2022-08-03T05:58:43.480Z,22.90
2022-08-03T06:01:11.811Z,23.00
2022-08-03T06:03:42.690Z,23.10
2022-08-03T06:06:14.451Z,23.20
2022-08-03T06:08:46.490Z,23.30
2022-08-03T06:11:14.782Z,23.40
2022-08-03T06:13:43.301Z,23.50
2022-08-03T06:16:11.730Z,23.70
2022-08-03T06:18:40.592Z,23.70
2022-08-03T06:21:14.594Z,23.90
2022-08-03T06:23:52.784Z,24.00
2022-08-03T06:26:26.082Z,23.90
2022-08-03T06:28:56.832Z,24.20
2022-08-03T06:31:33.210Z,24.20
2022-08-03T06:34:33.268Z,24.30
2022-08-03T06:36:52.417Z,24.50
2022-08-03T06:39:23.718Z,24.60
2022-08-03T06:41:53.829Z,24.70
2022-08-03T06:44:22.240Z,24.90
2022-08-03T06:46:51.282Z,25.00
2022-08-03T06:49:20.253Z,25.10
2022-08-03T06:52:05.997Z,25.20
2022-08-03T06:54:37.586Z,25.30
2022-08-03T06:57:08.426Z,25.40
2022-08-03T07:00:08.497Z,25.50
2022-08-03T07:08:07.056Z,25.90
2022-08-03T07:10:40.299Z,26.00
2022-08-03T07:13:18.311Z,26.20
2022-08-03T07:16:28.658Z,26.30
2022-08-03T07:18:59.896Z,26.30
2022-08-03T07:21:28.319Z,26.60
2022-08-03T08:21:06.151Z,29.10
2022-08-03T08:23:42.149Z,29.40
2022-08-03T08:26:12.956Z,29.50
2022-08-03T08:28:41.277Z,29.60
2022-08-03T08:31:09.597Z,29.70
2022-08-03T08:34:02.585Z,29.80
2022-08-03T08:36:27.858Z,30.00
2022-08-03T08:38:56.170Z,30.10
2022-08-03T08:41:24.578Z,30.10
2022-08-03T08:44:03.292Z,30.20
2022-08-03T08:46:35.173Z,30.30
2022-08-03T08:49:08.365Z,30.50
2022-08-03T08:51:59.525Z,30.60
2022-08-03T08:54:30.916Z,30.60
2022-08-03T08:57:12.389Z,30.70
2022-08-03T08:59:57.331Z,30.80
2022-08-03T09:02:25.880Z,30.90
2022-08-03T09:04:55.057Z,30.90
2022-08-03T09:07:25.240Z,31.10
2022-08-03T09:10:08.405Z,31.20
2022-08-03T09:12:48.478Z,31.20
2022-08-03T09:15:25.113Z,31.30
2022-08-03T09:17:55.361Z,31.40
2022-08-03T09:20:25.482Z,31.50
2022-08-03T09:22:58.701Z,31.60
2022-08-03T09:25:31.879Z,31.70
2022-08-03T09:28:13.079Z,31.70
2022-08-03T09:31:01.532Z,31.70
2022-08-03T09:33:36.171Z,31.70
2022-08-03T09:36:04.975Z,31.80
2022-08-03T09:38:34.841Z,31.90
2022-08-03T09:41:03.048Z,31.90
2022-08-03T09:43:47.565Z,32.00
2022-08-03T09:46:18.398Z,32.10
2022-08-03T09:48:46.788Z,32.20
2022-08-03T09:51:32.975Z,32.20
2022-08-03T09:54:09.619Z,32.30
2022-08-03T09:56:47.209Z,32.40
2022-08-03T09:59:28.127Z,32.50
2022-08-03T10:01:58.489Z,32.60
2022-08-03T10:04:27.662Z,32.70
2022-08-03T10:07:07.181Z,33.00
2022-08-03T10:09:37.975Z,32.90
2022-08-03T10:12:11.127Z,32.90
2022-08-03T10:14:41.878Z,33.00
2022-08-03T10:17:10.984Z,32.90
2022-08-03T10:19:42.198Z,32.90
2022-08-03T10:22:14.822Z,33.00
2022-08-03T10:24:50.835Z,33.10
2022-08-03T10:27:24.576Z,33.20
2022-08-03T10:29:54.671Z,33.40
2022-08-03T10:32:29.113Z,33.50
2022-08-03T10:35:20.914Z,33.70
2022-08-03T10:37:58.669Z,33.70
2022-08-03T10:40:48.892Z,33.80
2022-08-03T10:43:23.179Z,33.70
2022-08-03T10:45:52.340Z,33.70
2022-08-03T10:48:23.571Z,33.80
2022-08-03T10:50:52.468Z,33.70
2022-08-03T10:53:37.202Z,33.80
2022-08-03T10:56:58.404Z,33.90
2022-08-03T11:00:00.656Z,34.10
2022-08-03T11:03:04.910Z,34.20
2022-08-03T11:05:34.993Z,34.30
2022-08-03T11:08:25.923Z,34.40
2022-08-03T11:10:56.266Z,34.40
2022-08-03T11:13:28.323Z,34.50
2022-08-03T11:15:59.827Z,34.60
2022-08-03T11:18:31.053Z,34.70
2022-08-03T11:21:00.609Z,34.60
2022-08-03T11:24:02.889Z,34.90
2022-08-03T11:26:31.767Z,34.90
2022-08-03T11:29:29.187Z,35.10
2022-08-03T11:31:58.489Z,35.20
2022-08-03T11:34:27.203Z,35.40
2022-08-03T11:37:21.563Z,35.70
2022-08-03T11:39:53.810Z,36.30
2022-08-03T11:42:40.281Z,36.90
2022-08-03T11:45:11.115Z,37.60
2022-08-03T11:47:50.481Z,38.30
2022-08-03T11:50:24.102Z,38.90
2022-08-03T11:52:52.905Z,39.20
2022-08-03T11:55:22.861Z,39.70
2022-08-03T11:59:16.561Z,40.30
2022-08-03T12:01:08.914Z,40.90
2022-08-03T12:06:53.757Z,42.00
2022-08-03T12:28:50.160Z,48.30
2022-08-03T14:00:45.436Z,51.10
2022-08-03T14:03:15.408Z,51.50
2022-08-03T14:05:44.974Z,51.70
2022-08-03T14:08:14.078Z,52.00
2022-08-03T14:10:44.615Z,52.40
2022-08-03T14:13:17.516Z,52.60
2022-08-03T14:15:50.985Z,52.90
2022-08-03T14:18:29.190Z,53.20
2022-08-03T14:21:05.767Z,53.40
2022-08-03T14:23:38.821Z,53.60
2022-08-03T14:26:08.472Z,53.90
2022-08-03T14:28:37.243Z,54.20
2022-08-03T14:31:08.497Z,53.90
2022-08-03T14:33:56.052Z,53.90
2022-08-03T14:36:26.219Z,53.80
2022-08-03T14:39:03.158Z,53.90
2022-08-03T14:41:31.822Z,54.10
2022-08-03T14:44:02.226Z,54.10
2022-08-03T14:46:31.510Z,54.00
2022-08-03T14:50:33.566Z,54.00
2022-08-03T14:51:51.498Z,53.90
2022-08-03T14:54:21.464Z,53.90
2022-08-03T14:56:49.692Z,54.20
2022-08-03T15:02:06.262Z,54.10
2022-08-03T15:04:40.215Z,54.10
2022-08-03T15:07:08.549Z,53.70
2022-08-03T15:09:39.772Z,53.00
2022-08-03T15:12:08.555Z,52.70
2022-08-03T15:14:38.671Z,52.30
2022-08-03T15:17:07.433Z,52.10
2022-08-03T15:20:02.916Z,51.90
2022-08-03T15:22:34.570Z,51.80
2022-08-03T15:25:03.830Z,51.60
2022-08-03T15:28:04.138Z,51.60
2022-08-03T15:30:36.133Z,51.40
2022-08-03T15:33:04.671Z,51.70
2022-08-03T15:35:34.363Z,51.80
2022-08-03T15:38:07.309Z,51.60
2022-08-03T15:40:37.529Z,51.60
2022-08-03T15:43:06.096Z,51.50
2022-08-03T15:45:35.465Z,51.40
2022-08-03T15:48:05.552Z,51.40
2022-08-03T15:50:42.088Z,51.50
2022-08-03T15:53:12.357Z,51.50
2022-08-03T15:55:40.450Z,51.40
2022-08-03T15:59:09.158Z,51.20
2022-08-03T16:00:59.186Z,51.50
2022-08-03T16:03:28.407Z,51.70
2022-08-03T16:06:00.709Z,51.30
2022-08-03T16:08:32.362Z,51.30
2022-08-03T16:11:01.157Z,50.90
2022-08-03T16:14:13.513Z,50.70
2022-08-03T16:16:17.763Z,50.70
2022-08-03T16:18:46.006Z,50.30
2022-08-03T16:21:19.506Z,50.10
2022-08-03T16:23:50.135Z,49.80
2022-08-03T16:26:19.616Z,49.30
2022-08-03T16:28:47.803Z,49.10
2022-08-03T16:31:15.902Z,48.90
2022-08-03T16:33:44.237Z,48.70
2022-08-03T16:36:12.290Z,48.70
2022-08-03T16:38:44.600Z,48.60
2022-08-03T16:41:15.316Z,48.60
2022-08-03T16:43:43.575Z,48.60
2022-08-03T16:46:13.959Z,48.50
2022-08-03T16:48:42.253Z,48.40
2022-08-03T16:51:10.349Z,48.20
2022-08-03T16:54:07.680Z,47.90
2022-08-03T16:56:28.122Z,47.70
2022-08-03T16:58:56.249Z,47.50
2022-08-03T17:01:25.121Z,47.30
2022-08-03T17:04:04.569Z,47.10
2022-08-03T17:06:38.097Z,46.90
2022-08-03T17:09:17.999Z,46.60
2022-08-03T17:11:50.490Z,46.30
2022-08-03T17:14:28.236Z,45.70
2022-08-03T17:17:01.001Z,45.40
2022-08-03T17:19:32.269Z,45.30
2022-08-03T17:22:04.388Z,45.30
2022-08-03T17:24:35.619Z,45.30
2022-08-03T17:27:23.179Z,45.20
2022-08-03T17:30:07.605Z,45.10
2022-08-03T17:32:42.864Z,45.00
2022-08-03T17:35:20.890Z,44.90
2022-08-03T17:40:55.869Z,44.50
2022-08-03T17:44:13.083Z,44.00
2022-08-03T17:46:16.273Z,43.70
2022-08-03T17:51:46.485Z,42.70
2022-08-03T17:55:57.714Z,42.20
2022-08-03T17:58:01.482Z,41.80
2022-08-03T18:00:52.967Z,41.10
2022-08-03T18:03:26.186Z,40.70
2022-08-03T18:06:10.669Z,40.20
2022-08-03T18:08:47.482Z,39.80
2022-08-03T18:11:23.987Z,39.30
2022-08-03T18:14:16.488Z,39.00
2022-08-03T18:16:53.799Z,38.60
2022-08-03T18:20:02.692Z,38.30
2022-08-03T18:22:13.617Z,38.00
2022-08-03T18:24:45.259Z,37.70
2022-08-03T18:27:16.652Z,37.40
2022-08-03T18:29:48.309Z,37.20
2022-08-03T18:32:18.360Z,37.00
2022-08-03T18:34:53.489Z,36.80
2022-08-03T18:37:25.910Z,36.50
2022-08-03T18:39:57.904Z,36.30
2022-08-03T18:42:27.097Z,36.10
2022-08-03T18:44:56.500Z,35.80
2022-08-03T18:47:50.674Z,35.60
2022-08-03T18:50:29.421Z,35.30
2022-08-03T18:53:11.419Z,35.10
2022-08-03T18:56:01.427Z,34.80
2022-08-03T18:58:36.156Z,34.60
2022-08-03T19:01:58.165Z,34.30
2022-08-03T19:04:12.661Z,34.20
2022-08-03T19:06:44.759Z,33.90
2022-08-03T19:09:21.694Z,33.70
2022-08-03T19:12:13.214Z,33.50
2022-08-03T19:14:45.809Z,33.40
2022-08-03T19:17:21.256Z,33.30
2022-08-03T19:19:55.075Z,33.20
2022-08-03T19:22:27.217Z,33.10
2022-08-03T19:24:57.838Z,33.00
2022-08-03T19:27:27.885Z,32.90
2022-08-03T19:30:07.625Z,32.80
2022-08-03T19:32:55.046Z,32.60
2022-08-03T19:35:32.013Z,32.60
2022-08-03T19:38:16.698Z,32.50
2022-08-03T19:40:59.539Z,32.40
2022-08-03T19:43:52.933Z,32.40
2022-08-03T19:46:31.814Z,32.30
2022-08-03T19:49:02.563Z,32.20
2022-08-03T19:54:29.656Z,32.00
2022-08-03T19:57:17.008Z,32.00
2022-08-03T19:59:50.681Z,31.90
2022-08-03T20:02:26.985Z,31.80
2022-08-03T20:04:57.549Z,31.80
2022-08-03T20:07:27.888Z,31.70
2022-08-03T20:10:01.433Z,31.70
2022-08-03T20:12:38.568Z,31.50
2022-08-03T20:15:09.117Z,31.50
2022-08-03T20:17:56.201Z,31.40
2022-08-03T20:20:28.109Z,31.40
2022-08-03T20:23:02.185Z,31.30
2022-08-03T20:25:55.737Z,31.20
2022-08-03T20:28:33.667Z,31.10
2022-08-03T20:31:03.847Z,31.10
2022-08-03T20:33:48.724Z,31.00
2022-08-03T20:36:19.181Z,30.80
2022-08-03T20:38:53.144Z,30.60
2022-08-03T20:41:24.111Z,30.50
2022-08-03T20:43:55.695Z,30.50
2022-08-03T20:46:32.745Z,30.10
2022-08-03T20:49:05.705Z,30.30
2022-08-03T20:51:49.680Z,30.20
2022-08-03T20:54:30.906Z,30.10
2022-08-03T20:57:00.262Z,30.10
2022-08-03T20:59:46.724Z,30.00
2022-08-03T21:02:19.876Z,29.90
2022-08-03T21:04:57.815Z,29.90
2022-08-03T21:08:04.238Z,29.80
2022-08-03T21:10:17.802Z,29.70
2022-08-03T21:12:51.343Z,29.70
2022-08-03T21:13:08.291Z,32.10
2022-08-03T21:16:12.409Z,29.60
2022-08-03T21:18:14.762Z,29.50
2022-08-03T21:20:47.335Z,29.40
2022-08-03T21:23:45.396Z,29.30
2022-08-03T21:26:09.877Z,29.20
2022-08-03T21:28:39.862Z,29.10
2022-08-03T21:31:09.143Z,29.10
2022-08-03T21:33:37.592Z,29.00
2022-08-03T21:36:09.446Z,29.00
2022-08-03T21:38:37.744Z,28.90
2022-08-03T21:41:10.119Z,28.90
2022-08-03T21:43:38.299Z,28.80
2022-08-03T21:46:08.036Z,28.80
2022-08-03T21:48:39.024Z,28.70
2022-08-03T21:51:08.302Z,28.60
2022-08-03T21:54:03.041Z,28.60
2022-08-03T21:56:29.519Z,28.60
2022-08-03T21:59:05.028Z,28.50
2022-08-03T22:01:35.262Z,28.40
2022-08-03T22:04:09.396Z,28.40
2022-08-03T22:06:56.796Z,28.30
2022-08-03T22:09:27.687Z,28.30
2022-08-03T22:11:57.203Z,28.30
2022-08-03T22:14:25.270Z,28.20
2022-08-03T22:16:56.384Z,28.20
2022-08-03T22:19:24.682Z,28.10
2022-08-03T22:21:54.436Z,28.10
2022-08-03T22:24:28.259Z,28.00
2022-08-03T22:30:07.177Z,27.90
2022-08-03T22:32:39.411Z,27.80
2022-08-03T22:35:10.274Z,27.80
2022-08-03T22:37:54.329Z,27.80
2022-08-03T22:40:22.620Z,27.70
2022-08-03T22:42:53.213Z,27.70
2022-08-03T22:46:07.275Z,27.60
2022-08-03T22:48:11.552Z,27.60
2022-08-03T22:50:46.486Z,27.50
2022-08-03T22:53:18.318Z,27.40
2022-08-03T22:55:48.505Z,27.40
2022-08-03T22:58:18.706Z,27.30
2022-08-03T23:00:53.840Z,27.30
2022-08-03T23:03:59.877Z,27.20
2022-08-03T23:06:20.969Z,27.20
2022-08-03T23:08:51.604Z,27.10
2022-08-03T23:11:24.624Z,27.10
2022-08-03T23:13:57.043Z,27.00
2022-08-03T23:16:29.185Z,27.00
2022-08-03T23:18:59.252Z,26.90
2022-08-03T23:22:00.428Z,26.90
2022-08-03T23:24:25.979Z,26.90
2022-08-03T23:26:59.522Z,26.80
2022-08-03T23:29:32.672Z,26.70
2022-08-03T23:32:03.029Z,26.70
2022-08-03T23:34:51.149Z,26.70
2022-08-03T23:37:20.566Z,26.70
2022-08-03T23:39:49.948Z,26.60
2022-08-03T23:42:20.278Z,26.50
2022-08-03T23:44:56.769Z,26.40
2022-08-03T23:47:47.196Z,26.40
2022-08-03T23:50:15.950Z,26.40
2022-08-03T23:52:53.868Z,26.30
2022-08-03T23:55:38.527Z,26.30
2022-08-03T23:58:17.113Z,26.20
